sensor_id;sensor_type;location;lat;lon;timestamp;P1;durP1;ratioP1;P2;durP2;ratioP2
10303;SDS011;5197;48.152;8.590;2023-10-31T00:01:39;0.30;;;0.30;;
10303;SDS011;5197;48.152;8.590;2023-10-31T00:04:06;0.37;;;0.37;;
10303;SDS011;5197;48.152;8.590;2023-10-31T00:06:33;0.93;;;0.40;;
10303;SDS011;5197;48.152;8.590;2023-10-31T00:09:00;0.40;;;0.40;;
10303;SDS011;5197;48.152;8.590;2023-10-31T00:11:26;0.47;;;0.40;;
10303;SDS011;5197;48.152;8.590;2023-10-31T00:13:53;0.30;;;0.30;;
10303;SDS011;5197;48.152;8.590;2023-10-31T00:16:20;0.67;;;0.67;;
10303;SDS011;5197;48.152;8.590;2023-10-31T00:18:47;1.33;;;0.40;;
10303;SDS011;5197;48.152;8.590;2023-10-31T00:21:14;0.40;;;0.40;;
10303;SDS011;5197;48.152;8.590;2023-10-31T00:23:45;0.50;;;0.50;;
10303;SDS011;5197;48.152;8.590;2023-10-31T00:26:13;0.50;;;0.50;;
10303;SDS011;5197;48.152;8.590;2023-10-31T00:28:40;0.30;;;0.30;;
10303;SDS011;5197;48.152;8.590;2023-10-31T00:31:07;0.50;;;0.50;;
10303;SDS011;5197;48.152;8.590;2023-10-31T00:33:34;2.87;;;0.50;;
10303;SDS011;5197;48.152;8.590;2023-10-31T00:36:01;0.50;;;0.50;;
10303;SDS011;5197;48.152;8.590;2023-10-31T00:38:28;0.50;;;0.50;;
10303;SDS011;5197;48.152;8.590;2023-10-31T00:40:55;0.40;;;0.40;;
10303;SDS011;5197;48.152;8.590;2023-10-31T00:43:22;0.40;;;0.40;;
10303;SDS011;5197;48.152;8.590;2023-10-31T00:45:49;2.00;;;0.50;;
10303;SDS011;5197;48.152;8.590;2023-10-31T00:48:16;0.40;;;0.40;;
10303;SDS011;5197;48.152;8.590;2023-10-31T00:50:43;1.03;;;0.40;;
10303;SDS011;5197;48.152;8.590;2023-10-31T00:53:10;0.93;;;0.60;;
10303;SDS011;5197;48.152;8.590;2023-10-31T00:55:37;1.20;;;0.60;;
10303;SDS011;5197;48.152;8.590;2023-10-31T00:58:03;0.40;;;0.40;;
10303;SDS011;5197;48.152;8.590;2023-10-31T01:00:30;0.80;;;0.60;;
10303;SDS011;5197;48.152;8.590;2023-10-31T01:02:58;0.40;;;0.40;;
10303;SDS011;5197;48.152;8.590;2023-10-31T01:05:25;0.40;;;0.40;;
10303;SDS011;5197;48.152;8.590;2023-10-31T01:07:53;0.27;;;0.27;;
10303;SDS011;5197;48.152;8.590;2023-10-31T01:10:20;2.47;;;0.60;;
10303;SDS011;5197;48.152;8.590;2023-10-31T01:12:47;4.20;;;2.40;;
10303;SDS011;5197;48.152;8.590;2023-10-31T01:15:14;0.70;;;0.67;;
10303;SDS011;5197;48.152;8.590;2023-10-31T01:17:41;0.30;;;0.30;;
10303;SDS011;5197;48.152;8.590;2023-10-31T01:20:08;0.47;;;0.47;;
10303;SDS011;5197;48.152;8.590;2023-10-31T01:22:36;0.50;;;0.50;;
10303;SDS011;5197;48.152;8.590;2023-10-31T01:25:03;1.00;;;0.60;;
10303;SDS011;5197;48.152;8.590;2023-10-31T01:27:30;0.50;;;0.50;;
10303;SDS011;5197;48.152;8.590;2023-10-31T01:29:57;0.53;;;0.43;;
10303;SDS011;5197;48.152;8.590;2023-10-31T01:32:24;0.43;;;0.40;;
10303;SDS011;5197;48.152;8.590;2023-10-31T01:34:51;0.50;;;0.50;;
10303;SDS011;5197;48.152;8.590;2023-10-31T01:37:18;1.70;;;0.60;;
10303;SDS011;5197;48.152;8.590;2023-10-31T01:39:48;0.40;;;0.40;;
10303;SDS011;5197;48.152;8.590;2023-10-31T01:42:15;0.83;;;0.40;;
10303;SDS011;5197;48.152;8.590;2023-10-31T01:44:44;0.60;;;0.43;;
10303;SDS011;5197;48.152;8.590;2023-10-31T01:47:10;0.60;;;0.60;;
10303;SDS011;5197;48.152;8.590;2023-10-31T01:49:37;0.50;;;0.50;;
10303;SDS011;5197;48.152;8.590;2023-10-31T01:52:05;2.73;;;0.50;;
10303;SDS011;5197;48.152;8.590;2023-10-31T01:54:33;1.47;;;0.50;;
10303;SDS011;5197;48.152;8.590;2023-10-31T01:57:00;0.83;;;0.47;;
10303;SDS011;5197;48.152;8.590;2023-10-31T01:59:29;0.60;;;0.60;;
10303;SDS011;5197;48.152;8.590;2023-10-31T02:01:56;1.50;;;0.50;;
10303;SDS011;5197;48.152;8.590;2023-10-31T02:04:24;0.53;;;0.53;;
10303;SDS011;5197;48.152;8.590;2023-10-31T02:06:51;1.80;;;0.57;;
10303;SDS011;5197;48.152;8.590;2023-10-31T02:09:18;0.53;;;0.43;;
10303;SDS011;5197;48.152;8.590;2023-10-31T02:11:45;1.30;;;0.63;;
10303;SDS011;5197;48.152;8.590;2023-10-31T02:14:11;0.40;;;0.40;;
10303;SDS011;5197;48.152;8.590;2023-10-31T02:16:38;0.63;;;0.50;;
10303;SDS011;5197;48.152;8.590;2023-10-31T02:19:06;0.40;;;0.40;;
10303;SDS011;5197;48.152;8.590;2023-10-31T02:21:33;0.90;;;0.70;;
10303;SDS011;5197;48.152;8.590;2023-10-31T02:24:01;1.40;;;0.73;;
10303;SDS011;5197;48.152;8.590;2023-10-31T02:26:29;1.27;;;0.60;;
10303;SDS011;5197;48.152;8.590;2023-10-31T02:28:57;1.67;;;0.83;;
10303;SDS011;5197;48.152;8.590;2023-10-31T02:31:25;1.33;;;0.60;;
10303;SDS011;5197;48.152;8.590;2023-10-31T02:33:52;1.77;;;0.80;;
10303;SDS011;5197;48.152;8.590;2023-10-31T02:36:20;0.43;;;0.43;;
10303;SDS011;5197;48.152;8.590;2023-10-31T02:38:47;1.57;;;0.80;;
10303;SDS011;5197;48.152;8.590;2023-10-31T02:41:14;0.60;;;0.60;;
10303;SDS011;5197;48.152;8.590;2023-10-31T02:43:41;0.70;;;0.57;;
10303;SDS011;5197;48.152;8.590;2023-10-31T02:46:08;0.57;;;0.57;;
10303;SDS011;5197;48.152;8.590;2023-10-31T02:48:36;2.53;;;0.80;;
10303;SDS011;5197;48.152;8.590;2023-10-31T02:51:13;1.27;;;0.40;;
10303;SDS011;5197;48.152;8.590;2023-10-31T02:53:43;0.53;;;0.50;;
10303;SDS011;5197;48.152;8.590;2023-10-31T02:56:10;0.37;;;0.37;;
10303;SDS011;5197;48.152;8.590;2023-10-31T02:58:37;0.60;;;0.60;;
10303;SDS011;5197;48.152;8.590;2023-10-31T03:01:04;0.87;;;0.70;;
10303;SDS011;5197;48.152;8.590;2023-10-31T03:03:31;0.43;;;0.33;;
10303;SDS011;5197;48.152;8.590;2023-10-31T03:05:57;0.87;;;0.50;;
10303;SDS011;5197;48.152;8.590;2023-10-31T03:08:24;0.73;;;0.50;;
10303;SDS011;5197;48.152;8.590;2023-10-31T03:10:51;1.10;;;0.20;;
10303;SDS011;5197;48.152;8.590;2023-10-31T03:13:18;0.53;;;0.50;;
10303;SDS011;5197;48.152;8.590;2023-10-31T03:15:46;1.70;;;0.50;;
10303;SDS011;5197;48.152;8.590;2023-10-31T03:18:13;0.60;;;0.60;;
10303;SDS011;5197;48.152;8.590;2023-10-31T03:20:43;1.17;;;0.50;;
10303;SDS011;5197;48.152;8.590;2023-10-31T03:23:11;0.80;;;0.80;;
10303;SDS011;5197;48.152;8.590;2023-10-31T03:25:38;0.40;;;0.40;;
10303;SDS011;5197;48.152;8.590;2023-10-31T03:28:19;0.97;;;0.40;;
10303;SDS011;5197;48.152;8.590;2023-10-31T03:30:47;0.57;;;0.47;;
10303;SDS011;5197;48.152;8.590;2023-10-31T03:33:14;0.90;;;0.37;;
10303;SDS011;5197;48.152;8.590;2023-10-31T03:35:43;0.30;;;0.30;;
10303;SDS011;5197;48.152;8.590;2023-10-31T03:38:10;0.70;;;0.70;;
10303;SDS011;5197;48.152;8.590;2023-10-31T03:40:37;0.57;;;0.50;;
10303;SDS011;5197;48.152;8.590;2023-10-31T03:43:04;0.30;;;0.30;;
10303;SDS011;5197;48.152;8.590;2023-10-31T03:45:30;1.27;;;0.40;;
10303;SDS011;5197;48.152;8.590;2023-10-31T03:47:57;0.20;;;0.20;;
10303;SDS011;5197;48.152;8.590;2023-10-31T03:50:24;0.70;;;0.37;;
10303;SDS011;5197;48.152;8.590;2023-10-31T03:52:52;1.60;;;0.87;;
10303;SDS011;5197;48.152;8.590;2023-10-31T03:55:21;2.00;;;0.50;;
10303;SDS011;5197;48.152;8.590;2023-10-31T03:57:47;0.50;;;0.30;;
10303;SDS011;5197;48.152;8.590;2023-10-31T04:00:14;1.53;;;0.60;;
10303;SDS011;5197;48.152;8.590;2023-10-31T04:02:42;0.50;;;0.50;;
10303;SDS011;5197;48.152;8.590;2023-10-31T04:05:09;0.93;;;0.50;;
10303;SDS011;5197;48.152;8.590;2023-10-31T04:07:36;1.37;;;0.50;;
10303;SDS011;5197;48.152;8.590;2023-10-31T04:10:02;0.50;;;0.50;;
10303;SDS011;5197;48.152;8.590;2023-10-31T04:12:30;1.53;;;0.40;;
10303;SDS011;5197;48.152;8.590;2023-10-31T04:14:57;0.93;;;0.40;;
10303;SDS011;5197;48.152;8.590;2023-10-31T04:17:24;0.40;;;0.40;;
10303;SDS011;5197;48.152;8.590;2023-10-31T04:19:51;0.40;;;0.40;;
10303;SDS011;5197;48.152;8.590;2023-10-31T04:22:18;0.33;;;0.33;;
10303;SDS011;5197;48.152;8.590;2023-10-31T04:24:45;1.00;;;0.37;;
10303;SDS011;5197;48.152;8.590;2023-10-31T04:27:12;1.57;;;0.40;;
10303;SDS011;5197;48.152;8.590;2023-10-31T04:29:38;0.27;;;0.27;;
10303;SDS011;5197;48.152;8.590;2023-10-31T04:32:06;0.77;;;0.37;;
10303;SDS011;5197;48.152;8.590;2023-10-31T04:34:33;0.37;;;0.33;;
10303;SDS011;5197;48.152;8.590;2023-10-31T04:36:59;0.50;;;0.50;;
10303;SDS011;5197;48.152;8.590;2023-10-31T04:39:26;0.50;;;0.33;;
10303;SDS011;5197;48.152;8.590;2023-10-31T04:41:53;3.57;;;0.70;;
10303;SDS011;5197;48.152;8.590;2023-10-31T04:44:20;1.30;;;0.60;;
10303;SDS011;5197;48.152;8.590;2023-10-31T04:46:47;0.63;;;0.40;;
10303;SDS011;5197;48.152;8.590;2023-10-31T04:49:14;0.33;;;0.33;;
10303;SDS011;5197;48.152;8.590;2023-10-31T04:51:44;4.03;;;0.57;;
10303;SDS011;5197;48.152;8.590;2023-10-31T04:54:11;1.10;;;0.50;;
10303;SDS011;5197;48.152;8.590;2023-10-31T04:56:38;0.73;;;0.50;;
10303;SDS011;5197;48.152;8.590;2023-10-31T04:59:05;0.40;;;0.40;;
10303;SDS011;5197;48.152;8.590;2023-10-31T05:01:32;1.63;;;0.47;;
10303;SDS011;5197;48.152;8.590;2023-10-31T05:03:59;2.00;;;0.70;;
10303;SDS011;5197;48.152;8.590;2023-10-31T05:06:38;3.20;;;0.63;;
10303;SDS011;5197;48.152;8.590;2023-10-31T05:09:05;1.57;;;0.80;;
10303;SDS011;5197;48.152;8.590;2023-10-31T05:11:32;2.67;;;0.87;;
10303;SDS011;5197;48.152;8.590;2023-10-31T05:13:59;1.37;;;0.80;;
10303;SDS011;5197;48.152;8.590;2023-10-31T05:16:26;0.77;;;0.67;;
10303;SDS011;5197;48.152;8.590;2023-10-31T05:18:53;0.80;;;0.80;;
10303;SDS011;5197;48.152;8.590;2023-10-31T05:21:20;1.63;;;1.20;;
10303;SDS011;5197;48.152;8.590;2023-10-31T05:23:47;2.20;;;1.50;;
10303;SDS011;5197;48.152;8.590;2023-10-31T05:26:14;1.67;;;1.10;;
10303;SDS011;5197;48.152;8.590;2023-10-31T05:28:41;1.87;;;1.40;;
10303;SDS011;5197;48.152;8.590;2023-10-31T05:31:09;1.50;;;1.33;;
10303;SDS011;5197;48.152;8.590;2023-10-31T05:33:36;1.80;;;1.10;;
10303;SDS011;5197;48.152;8.590;2023-10-31T05:36:03;1.83;;;1.17;;
10303;SDS011;5197;48.152;8.590;2023-10-31T05:38:30;1.60;;;1.50;;
10303;SDS011;5197;48.152;8.590;2023-10-31T05:40:57;4.77;;;1.40;;
10303;SDS011;5197;48.152;8.590;2023-10-31T05:43:24;2.30;;;1.13;;
10303;SDS011;5197;48.152;8.590;2023-10-31T05:45:51;2.93;;;1.93;;
10303;SDS011;5197;48.152;8.590;2023-10-31T05:48:18;1.73;;;0.90;;
10303;SDS011;5197;48.152;8.590;2023-10-31T05:50:45;2.90;;;1.00;;
10303;SDS011;5197;48.152;8.590;2023-10-31T05:53:12;0.80;;;0.67;;
10303;SDS011;5197;48.152;8.590;2023-10-31T05:55:39;3.23;;;1.00;;
10303;SDS011;5197;48.152;8.590;2023-10-31T05:58:06;0.80;;;0.80;;
10303;SDS011;5197;48.152;8.590;2023-10-31T06:00:33;2.00;;;0.90;;
10303;SDS011;5197;48.152;8.590;2023-10-31T06:03:01;2.00;;;1.50;;
10303;SDS011;5197;48.152;8.590;2023-10-31T06:05:29;3.07;;;1.30;;
10303;SDS011;5197;48.152;8.590;2023-10-31T06:07:56;2.00;;;1.37;;
10303;SDS011;5197;48.152;8.590;2023-10-31T06:10:22;1.17;;;1.07;;
10303;SDS011;5197;48.152;8.590;2023-10-31T06:12:49;2.87;;;1.30;;
10303;SDS011;5197;48.152;8.590;2023-10-31T06:15:16;1.17;;;1.07;;
10303;SDS011;5197;48.152;8.590;2023-10-31T06:17:43;2.20;;;1.07;;
10303;SDS011;5197;48.152;8.590;2023-10-31T06:20:10;0.80;;;0.80;;
10303;SDS011;5197;48.152;8.590;2023-10-31T06:22:37;1.93;;;0.90;;
10303;SDS011;5197;48.152;8.590;2023-10-31T06:25:04;2.77;;;1.10;;
10303;SDS011;5197;48.152;8.590;2023-10-31T06:27:32;1.13;;;0.87;;
10303;SDS011;5197;48.152;8.590;2023-10-31T06:29:58;1.23;;;0.87;;
10303;SDS011;5197;48.152;8.590;2023-10-31T06:32:45;1.00;;;0.87;;
10303;SDS011;5197;48.152;8.590;2023-10-31T06:35:12;5.97;;;1.10;;
10303;SDS011;5197;48.152;8.590;2023-10-31T06:37:39;3.00;;;0.90;;
10303;SDS011;5197;48.152;8.590;2023-10-31T06:40:06;2.87;;;1.20;;
10303;SDS011;5197;48.152;8.590;2023-10-31T06:42:34;2.40;;;1.30;;
10303;SDS011;5197;48.152;8.590;2023-10-31T06:45:02;5.37;;;1.53;;
10303;SDS011;5197;48.152;8.590;2023-10-31T06:47:30;5.50;;;2.53;;
10303;SDS011;5197;48.152;8.590;2023-10-31T06:49:57;1.10;;;0.90;;
10303;SDS011;5197;48.152;8.590;2023-10-31T06:52:24;1.73;;;1.10;;
10303;SDS011;5197;48.152;8.590;2023-10-31T06:54:50;2.67;;;1.13;;
10303;SDS011;5197;48.152;8.590;2023-10-31T06:57:17;1.30;;;1.20;;
10303;SDS011;5197;48.152;8.590;2023-10-31T06:59:44;4.43;;;1.00;;
10303;SDS011;5197;48.152;8.590;2023-10-31T07:02:12;2.00;;;1.20;;
10303;SDS011;5197;48.152;8.590;2023-10-31T07:04:40;4.43;;;1.87;;
10303;SDS011;5197;48.152;8.590;2023-10-31T07:07:07;1.87;;;1.50;;
10303;SDS011;5197;48.152;8.590;2023-10-31T07:09:34;1.53;;;1.33;;
10303;SDS011;5197;48.152;8.590;2023-10-31T07:12:01;2.30;;;1.20;;
10303;SDS011;5197;48.152;8.590;2023-10-31T07:14:28;4.00;;;1.17;;
10303;SDS011;5197;48.152;8.590;2023-10-31T07:16:56;3.20;;;1.33;;
10303;SDS011;5197;48.152;8.590;2023-10-31T07:19:23;1.30;;;1.20;;
10303;SDS011;5197;48.152;8.590;2023-10-31T07:21:50;3.00;;;1.50;;
10303;SDS011;5197;48.152;8.590;2023-10-31T07:24:17;1.67;;;1.13;;
10303;SDS011;5197;48.152;8.590;2023-10-31T07:26:44;1.93;;;0.83;;
10303;SDS011;5197;48.152;8.590;2023-10-31T07:29:11;0.90;;;0.80;;
10303;SDS011;5197;48.152;8.590;2023-10-31T07:31:38;1.10;;;1.00;;
10303;SDS011;5197;48.152;8.590;2023-10-31T07:34:05;1.30;;;1.20;;
10303;SDS011;5197;48.152;8.590;2023-10-31T07:36:32;2.67;;;2.23;;
10303;SDS011;5197;48.152;8.590;2023-10-31T07:39:01;1.90;;;1.80;;
10303;SDS011;5197;48.152;8.590;2023-10-31T07:41:29;3.13;;;2.07;;
10303;SDS011;5197;48.152;8.590;2023-10-31T07:43:56;3.87;;;1.87;;
10303;SDS011;5197;48.152;8.590;2023-10-31T07:46:23;5.63;;;2.20;;
10303;SDS011;5197;48.152;8.590;2023-10-31T07:48:50;6.63;;;2.30;;
10303;SDS011;5197;48.152;8.590;2023-10-31T07:51:16;2.07;;;1.90;;
10303;SDS011;5197;48.152;8.590;2023-10-31T07:53:43;4.27;;;1.43;;
10303;SDS011;5197;48.152;8.590;2023-10-31T07:56:17;3.27;;;1.53;;
10303;SDS011;5197;48.152;8.590;2023-10-31T07:58:49;6.40;;;1.53;;
10303;SDS011;5197;48.152;8.590;2023-10-31T08:01:17;3.27;;;1.87;;
10303;SDS011;5197;48.152;8.590;2023-10-31T08:03:47;3.00;;;2.10;;
10303;SDS011;5197;48.152;8.590;2023-10-31T08:06:14;4.50;;;2.10;;
10303;SDS011;5197;48.152;8.590;2023-10-31T08:08:41;5.03;;;1.90;;
10303;SDS011;5197;48.152;8.590;2023-10-31T08:11:09;3.20;;;2.10;;
10303;SDS011;5197;48.152;8.590;2023-10-31T08:13:37;1.77;;;1.67;;
10303;SDS011;5197;48.152;8.590;2023-10-31T08:16:04;2.93;;;1.80;;
10303;SDS011;5197;48.152;8.590;2023-10-31T08:18:32;2.47;;;2.17;;
10303;SDS011;5197;48.152;8.590;2023-10-31T08:21:00;4.87;;;1.73;;
10303;SDS011;5197;48.152;8.590;2023-10-31T08:23:28;4.60;;;2.00;;
10303;SDS011;5197;48.152;8.590;2023-10-31T08:25:55;5.57;;;2.70;;
10303;SDS011;5197;48.152;8.590;2023-10-31T08:28:23;4.10;;;2.40;;
10303;SDS011;5197;48.152;8.590;2023-10-31T08:30:49;4.80;;;2.03;;
10303;SDS011;5197;48.152;8.590;2023-10-31T08:33:16;4.80;;;1.80;;
10303;SDS011;5197;48.152;8.590;2023-10-31T08:35:43;3.13;;;1.83;;
10303;SDS011;5197;48.152;8.590;2023-10-31T08:38:10;4.27;;;2.40;;
10303;SDS011;5197;48.152;8.590;2023-10-31T08:40:52;2.57;;;2.37;;
10303;SDS011;5197;48.152;8.590;2023-10-31T08:43:19;2.40;;;1.60;;
10303;SDS011;5197;48.152;8.590;2023-10-31T08:45:46;2.60;;;2.13;;
10303;SDS011;5197;48.152;8.590;2023-10-31T08:48:13;2.93;;;1.90;;
10303;SDS011;5197;48.152;8.590;2023-10-31T08:50:42;5.57;;;2.80;;
10303;SDS011;5197;48.152;8.590;2023-10-31T08:53:09;2.27;;;1.80;;
10303;SDS011;5197;48.152;8.590;2023-10-31T08:55:36;3.97;;;2.00;;
10303;SDS011;5197;48.152;8.590;2023-10-31T08:58:04;5.67;;;1.77;;
10303;SDS011;5197;48.152;8.590;2023-10-31T09:00:30;3.90;;;1.80;;
10303;SDS011;5197;48.152;8.590;2023-10-31T09:03:01;4.77;;;1.60;;
10303;SDS011;5197;48.152;8.590;2023-10-31T09:05:27;4.20;;;1.43;;
10303;SDS011;5197;48.152;8.590;2023-10-31T09:07:54;3.67;;;1.77;;
10303;SDS011;5197;48.152;8.590;2023-10-31T09:10:23;2.03;;;1.90;;
10303;SDS011;5197;48.152;8.590;2023-10-31T09:12:50;3.57;;;1.90;;
10303;SDS011;5197;48.152;8.590;2023-10-31T09:15:17;3.63;;;1.70;;
10303;SDS011;5197;48.152;8.590;2023-10-31T09:17:45;5.33;;;1.53;;
10303;SDS011;5197;48.152;8.590;2023-10-31T09:20:15;4.60;;;1.90;;
10303;SDS011;5197;48.152;8.590;2023-10-31T09:22:42;2.77;;;1.80;;
10303;SDS011;5197;48.152;8.590;2023-10-31T09:25:09;3.40;;;1.60;;
10303;SDS011;5197;48.152;8.590;2023-10-31T09:27:39;3.53;;;2.20;;
10303;SDS011;5197;48.152;8.590;2023-10-31T09:30:07;3.83;;;2.20;;
10303;SDS011;5197;48.152;8.590;2023-10-31T09:32:34;5.40;;;2.07;;
10303;SDS011;5197;48.152;8.590;2023-10-31T09:35:01;4.93;;;2.20;;
10303;SDS011;5197;48.152;8.590;2023-10-31T09:37:28;4.03;;;1.87;;
10303;SDS011;5197;48.152;8.590;2023-10-31T09:39:55;4.97;;;2.07;;
10303;SDS011;5197;48.152;8.590;2023-10-31T09:42:22;1.97;;;1.50;;
10303;SDS011;5197;48.152;8.590;2023-10-31T09:44:49;4.37;;;1.80;;
10303;SDS011;5197;48.152;8.590;2023-10-31T09:47:16;6.43;;;2.43;;
10303;SDS011;5197;48.152;8.590;2023-10-31T09:49:43;3.43;;;1.97;;
10303;SDS011;5197;48.152;8.590;2023-10-31T09:52:11;4.00;;;2.90;;
10303;SDS011;5197;48.152;8.590;2023-10-31T09:54:38;2.77;;;2.37;;
10303;SDS011;5197;48.152;8.590;2023-10-31T09:57:09;2.13;;;1.63;;
10303;SDS011;5197;48.152;8.590;2023-10-31T10:02:29;1.20;;;1.07;;
10303;SDS011;5197;48.152;8.590;2023-10-31T10:04:56;2.60;;;1.30;;
10303;SDS011;5197;48.152;8.590;2023-10-31T10:07:23;1.83;;;1.20;;
10303;SDS011;5197;48.152;8.590;2023-10-31T10:09:50;3.43;;;1.20;;
10303;SDS011;5197;48.152;8.590;2023-10-31T10:12:17;2.03;;;1.00;;
10303;SDS011;5197;48.152;8.590;2023-10-31T10:14:44;0.83;;;0.83;;
10303;SDS011;5197;48.152;8.590;2023-10-31T10:17:22;1.07;;;0.97;;
10303;SDS011;5197;48.152;8.590;2023-10-31T10:20:06;0.70;;;0.70;;
10303;SDS011;5197;48.152;8.590;2023-10-31T10:22:38;0.67;;;0.60;;
10303;SDS011;5197;48.152;8.590;2023-10-31T10:25:06;1.70;;;0.80;;
10303;SDS011;5197;48.152;8.590;2023-10-31T10:27:34;0.73;;;0.50;;
10303;SDS011;5197;48.152;8.590;2023-10-31T10:30:02;1.20;;;0.70;;
10303;SDS011;5197;48.152;8.590;2023-10-31T10:32:34;0.97;;;0.43;;
10303;SDS011;5197;48.152;8.590;2023-10-31T10:35:01;2.03;;;0.60;;
10303;SDS011;5197;48.152;8.590;2023-10-31T10:37:28;0.63;;;0.60;;
10303;SDS011;5197;48.152;8.590;2023-10-31T10:39:57;0.30;;;0.30;;
10303;SDS011;5197;48.152;8.590;2023-10-31T10:42:30;1.03;;;0.50;;
10303;SDS011;5197;48.152;8.590;2023-10-31T10:45:15;1.17;;;0.60;;
10303;SDS011;5197;48.152;8.590;2023-10-31T10:47:47;0.47;;;0.40;;
10303;SDS011;5197;48.152;8.590;2023-10-31T10:50:15;0.63;;;0.40;;
10303;SDS011;5197;48.152;8.590;2023-10-31T10:52:54;0.40;;;0.40;;
10303;SDS011;5197;48.152;8.590;2023-10-31T10:55:33;0.40;;;0.40;;
10303;SDS011;5197;48.152;8.590;2023-10-31T10:58:17;1.57;;;0.40;;
10303;SDS011;5197;48.152;8.590;2023-10-31T11:00:54;0.30;;;0.30;;
10303;SDS011;5197;48.152;8.590;2023-10-31T11:03:22;1.97;;;0.60;;
10303;SDS011;5197;48.152;8.590;2023-10-31T11:05:51;0.57;;;0.37;;
10303;SDS011;5197;48.152;8.590;2023-10-31T11:08:20;0.40;;;0.40;;
10303;SDS011;5197;48.152;8.590;2023-10-31T11:10:47;0.80;;;0.50;;
10303;SDS011;5197;48.152;8.590;2023-10-31T11:13:16;0.47;;;0.47;;
10303;SDS011;5197;48.152;8.590;2023-10-31T11:15:43;2.77;;;0.70;;
10303;SDS011;5197;48.152;8.590;2023-10-31T11:18:10;0.77;;;0.57;;
10303;SDS011;5197;48.152;8.590;2023-10-31T11:20:38;0.50;;;0.40;;
10303;SDS011;5197;48.152;8.590;2023-10-31T11:23:06;3.93;;;0.50;;
10303;SDS011;5197;48.152;8.590;2023-10-31T11:25:33;1.70;;;0.60;;
10303;SDS011;5197;48.152;8.590;2023-10-31T11:28:11;0.47;;;0.47;;
10303;SDS011;5197;48.152;8.590;2023-10-31T11:30:43;2.27;;;0.50;;
10303;SDS011;5197;48.152;8.590;2023-10-31T11:33:14;1.03;;;0.50;;
10303;SDS011;5197;48.152;8.590;2023-10-31T11:35:42;1.23;;;0.60;;
10303;SDS011;5197;48.152;8.590;2023-10-31T11:38:13;0.40;;;0.40;;
10303;SDS011;5197;48.152;8.590;2023-10-31T11:40:58;1.77;;;0.50;;
10303;SDS011;5197;48.152;8.590;2023-10-31T11:43:35;3.07;;;0.40;;
10303;SDS011;5197;48.152;8.590;2023-10-31T11:46:05;0.43;;;0.43;;
10303;SDS011;5197;48.152;8.590;2023-10-31T11:48:48;3.40;;;0.60;;
10303;SDS011;5197;48.152;8.590;2023-10-31T11:51:20;0.90;;;0.60;;
10303;SDS011;5197;48.152;8.590;2023-10-31T11:53:48;1.07;;;0.80;;
10303;SDS011;5197;48.152;8.590;2023-10-31T11:56:19;0.97;;;0.60;;
10303;SDS011;5197;48.152;8.590;2023-10-31T12:01:30;0.97;;;0.80;;
10303;SDS011;5197;48.152;8.590;2023-10-31T12:03:57;1.60;;;0.50;;
10303;SDS011;5197;48.152;8.590;2023-10-31T12:06:24;0.60;;;0.60;;
10303;SDS011;5197;48.152;8.590;2023-10-31T12:08:51;1.10;;;0.77;;
10303;SDS011;5197;48.152;8.590;2023-10-31T12:11:19;2.20;;;0.90;;
10303;SDS011;5197;48.152;8.590;2023-10-31T12:13:54;1.83;;;1.00;;
10303;SDS011;5197;48.152;8.590;2023-10-31T12:16:23;0.80;;;0.80;;
10303;SDS011;5197;48.152;8.590;2023-10-31T12:18:55;0.50;;;0.50;;
10303;SDS011;5197;48.152;8.590;2023-10-31T12:21:45;1.90;;;0.50;;
10303;SDS011;5197;48.152;8.590;2023-10-31T12:24:14;1.50;;;0.70;;
10303;SDS011;5197;48.152;8.590;2023-10-31T12:26:43;1.07;;;0.77;;
10303;SDS011;5197;48.152;8.590;2023-10-31T12:31:42;0.73;;;0.47;;
10303;SDS011;5197;48.152;8.590;2023-10-31T12:34:12;0.33;;;0.33;;
10303;SDS011;5197;48.152;8.590;2023-10-31T12:36:40;0.43;;;0.43;;
10303;SDS011;5197;48.152;8.590;2023-10-31T12:39:09;2.93;;;0.83;;
10303;SDS011;5197;48.152;8.590;2023-10-31T12:41:38;0.40;;;0.40;;
10303;SDS011;5197;48.152;8.590;2023-10-31T12:44:07;2.17;;;0.53;;
10303;SDS011;5197;48.152;8.590;2023-10-31T12:46:40;0.33;;;0.33;;
10303;SDS011;5197;48.152;8.590;2023-10-31T12:49:10;1.53;;;0.50;;
10303;SDS011;5197;48.152;8.590;2023-10-31T12:52:00;3.47;;;0.57;;
10303;SDS011;5197;48.152;8.590;2023-10-31T12:54:30;0.73;;;0.63;;
10303;SDS011;5197;48.152;8.590;2023-10-31T12:56:59;2.17;;;1.10;;
10303;SDS011;5197;48.152;8.590;2023-10-31T12:59:33;1.10;;;0.93;;
10303;SDS011;5197;48.152;8.590;2023-10-31T13:02:02;3.53;;;1.83;;
10303;SDS011;5197;48.152;8.590;2023-10-31T13:04:31;1.60;;;1.30;;
10303;SDS011;5197;48.152;8.590;2023-10-31T13:06:59;2.23;;;0.87;;
10303;SDS011;5197;48.152;8.590;2023-10-31T13:09:28;1.43;;;0.60;;
10303;SDS011;5197;48.152;8.590;2023-10-31T13:12:05;1.03;;;0.83;;
10303;SDS011;5197;48.152;8.590;2023-10-31T13:14:33;0.60;;;0.50;;
10303;SDS011;5197;48.152;8.590;2023-10-31T13:17:03;1.33;;;0.53;;
10303;SDS011;5197;48.152;8.590;2023-10-31T13:19:30;1.90;;;0.60;;
10303;SDS011;5197;48.152;8.590;2023-10-31T13:21:57;0.83;;;0.70;;
10303;SDS011;5197;48.152;8.590;2023-10-31T13:24:24;0.50;;;0.50;;
10303;SDS011;5197;48.152;8.590;2023-10-31T13:26:51;1.27;;;1.07;;
10303;SDS011;5197;48.152;8.590;2023-10-31T13:29:19;2.67;;;0.97;;
10303;SDS011;5197;48.152;8.590;2023-10-31T13:31:46;0.80;;;0.57;;
10303;SDS011;5197;48.152;8.590;2023-10-31T13:34:13;1.93;;;1.00;;
10303;SDS011;5197;48.152;8.590;2023-10-31T13:36:40;2.47;;;1.37;;
10303;SDS011;5197;48.152;8.590;2023-10-31T13:39:07;2.13;;;1.40;;
10303;SDS011;5197;48.152;8.590;2023-10-31T13:41:35;1.30;;;0.70;;
10303;SDS011;5197;48.152;8.590;2023-10-31T13:44:02;0.47;;;0.47;;
10303;SDS011;5197;48.152;8.590;2023-10-31T13:46:30;1.70;;;0.70;;
10303;SDS011;5197;48.152;8.590;2023-10-31T13:48:57;0.57;;;0.50;;
10303;SDS011;5197;48.152;8.590;2023-10-31T13:51:24;2.10;;;0.60;;
10303;SDS011;5197;48.152;8.590;2023-10-31T13:53:51;1.10;;;0.67;;
10303;SDS011;5197;48.152;8.590;2023-10-31T13:56:18;0.63;;;0.63;;
10303;SDS011;5197;48.152;8.590;2023-10-31T13:58:45;1.03;;;1.00;;
10303;SDS011;5197;48.152;8.590;2023-10-31T14:01:12;1.50;;;1.40;;
10303;SDS011;5197;48.152;8.590;2023-10-31T14:03:39;1.33;;;1.23;;
10303;SDS011;5197;48.152;8.590;2023-10-31T14:06:06;1.73;;;0.87;;
10303;SDS011;5197;48.152;8.590;2023-10-31T14:08:33;0.80;;;0.80;;
10303;SDS011;5197;48.152;8.590;2023-10-31T14:11:00;3.97;;;1.10;;
10303;SDS011;5197;48.152;8.590;2023-10-31T14:13:27;1.10;;;1.00;;
10303;SDS011;5197;48.152;8.590;2023-10-31T14:15:54;1.27;;;0.70;;
10303;SDS011;5197;48.152;8.590;2023-10-31T14:18:21;1.70;;;1.03;;
10303;SDS011;5197;48.152;8.590;2023-10-31T14:20:48;0.70;;;0.70;;
10303;SDS011;5197;48.152;8.590;2023-10-31T14:23:15;1.80;;;0.90;;
10303;SDS011;5197;48.152;8.590;2023-10-31T14:25:41;1.70;;;1.07;;
10303;SDS011;5197;48.152;8.590;2023-10-31T14:28:09;2.00;;;0.90;;
10303;SDS011;5197;48.152;8.590;2023-10-31T14:30:37;0.70;;;0.70;;
10303;SDS011;5197;48.152;8.590;2023-10-31T14:33:03;0.70;;;0.70;;
10303;SDS011;5197;48.152;8.590;2023-10-31T14:35:30;1.30;;;1.20;;
10303;SDS011;5197;48.152;8.590;2023-10-31T14:37:57;0.93;;;0.80;;
10303;SDS011;5197;48.152;8.590;2023-10-31T14:40:24;0.67;;;0.67;;
10303;SDS011;5197;48.152;8.590;2023-10-31T14:42:51;2.20;;;0.80;;
10303;SDS011;5197;48.152;8.590;2023-10-31T14:45:18;0.63;;;0.60;;
10303;SDS011;5197;48.152;8.590;2023-10-31T14:47:45;1.13;;;0.60;;
10303;SDS011;5197;48.152;8.590;2023-10-31T14:50:12;2.60;;;0.70;;
10303;SDS011;5197;48.152;8.590;2023-10-31T14:52:39;0.93;;;0.90;;
10303;SDS011;5197;48.152;8.590;2023-10-31T14:55:07;0.63;;;0.27;;
10303;SDS011;5197;48.152;8.590;2023-10-31T14:57:35;0.67;;;0.40;;
10303;SDS011;5197;48.152;8.590;2023-10-31T15:00:22;0.87;;;0.83;;
10303;SDS011;5197;48.152;8.590;2023-10-31T15:02:58;0.80;;;0.80;;
10303;SDS011;5197;48.152;8.590;2023-10-31T15:05:25;0.70;;;0.70;;
10303;SDS011;5197;48.152;8.590;2023-10-31T15:07:52;0.73;;;0.73;;
10303;SDS011;5197;48.152;8.590;2023-10-31T15:10:21;2.00;;;1.83;;
10303;SDS011;5197;48.152;8.590;2023-10-31T15:12:49;1.00;;;1.00;;
10303;SDS011;5197;48.152;8.590;2023-10-31T15:15:17;1.50;;;1.00;;